Time;durP1;ratioP1;P1;durP2;ratioP2;P2;SDS_P1;SDS_P2;PMS_P1;PMS_P2;Temp;Humidity;BMP_temperature;BMP_pressure;BME280_temperature;BME280_humidity;BME280_pressure;Samples;Min_cycle;Max_cycle;Signal;HPM_P1;HPM_P2
2024/03/16 00:02:02;;;;;;;55.10;29.50;;;;;;;8.43;77.94;98271.59;436423;1253;99199;-40
2024/03/16 00:12:09;;;;;;;54.50;30.10;;;;;;;8.35;78.12;98275.50;436430;1253;108222;-41
2024/03/16 00:22:16;;;;;;;46.00;27.80;;;;;;;8.22;78.26;98279.66;436284;1253;98814;-40
2024/03/16 00:32:23;;;;;;;42.70;22.70;;;;;;;8.17;78.39;98275.56;436442;1254;112007;-40
2024/03/16 00:42:29;;;;;;;37.70;21.90;;;;;;;8.24;78.53;98269.50;436326;1248;107342;-40
2024/03/16 00:52:36;;;;;;;42.00;23.60;;;;;;;8.25;78.60;98260.89;436267;1254;99104;-40
2024/03/16 01:02:41;;;;;;;39.20;23.80;;;;;;;8.24;78.79;98258.27;436305;1252;108476;-39
2024/03/16 01:12:46;;;;;;;37.60;21.50;;;;;;;8.30;78.68;98247.96;436395;1261;99240;-42
2024/03/16 01:22:53;;;;;;;38.90;21.20;;;;;;;8.39;78.80;98248.99;436251;1253;111719;-39
2024/03/16 01:32:59;;;;;;;37.30;22.40;;;;;;;8.49;79.02;98242.55;436218;1261;107582;-40
2024/03/16 01:43:05;;;;;;;32.00;20.60;;;;;;;8.62;79.15;98243.14;436262;1253;98723;-41
2024/03/16 01:53:12;;;;;;;35.50;22.20;;;;;;;8.72;79.19;98245.64;436286;1253;107396;-39
2024/03/16 02:03:19;;;;;;;37.00;20.30;;;;;;;8.84;78.95;98248.64;436244;1261;99333;-41
2024/03/16 02:13:25;;;;;;;26.10;17.30;;;;;;;8.95;79.04;98245.23;436303;1253;112063;-41
2024/03/16 02:44:03;;;;;;;29.70;20.60;;;;;;;8.82;79.06;98260.52;434359;1254;102398;-39
2024/03/16 03:04:16;;;;;;;29.10;18.10;;;;;;;8.98;79.15;98252.83;434256;1257;110846;-39
2024/03/16 03:14:22;;;;;;;33.40;22.10;;;;;;;8.96;79.46;98254.52;434120;1254;108363;-40
2024/03/16 03:24:28;;;;;;;36.50;20.80;;;;;;;8.80;79.73;98251.21;434311;1254;99231;-40
2024/03/16 03:34:35;;;;;;;40.10;22.70;;;;;;;8.59;80.11;98243.23;434276;1257;108602;-40
2024/03/16 03:44:50;;;;;;;42.00;25.50;;;;;;;8.44;80.76;98229.73;434277;1254;99269;-40
2024/03/16 03:54:56;;;;;;;41.90;26.10;;;;;;;8.37;81.43;98237.63;434366;1257;109575;-40
2024/03/16 04:05:03;;;;;;;37.50;23.50;;;;;;;8.24;82.06;98235.52;434391;1258;108293;-39
2024/03/16 04:15:09;;;;;;;40.20;21.50;;;;;;;8.15;82.78;98239.08;434144;1257;99264;-39
2024/03/16 04:25:15;;;;;;;41.90;25.40;;;;;;;8.12;83.38;98239.32;434180;1254;106955;-40
2024/03/16 04:35:22;;;;;;;33.90;21.90;;;;;;;8.12;83.82;98241.69;434453;1257;99265;-40
2024/03/16 04:45:28;;;;;;;36.50;23.00;;;;;;;8.10;84.41;98241.42;434299;1267;112945;-40
2024/03/16 04:55:35;;;;;;;43.30;25.40;;;;;;;8.12;84.82;98239.89;434141;1254;107573;-40
2024/03/16 05:05:42;;;;;;;38.20;24.60;;;;;;;8.14;85.07;98248.05;434301;1254;99135;-39
2024/03/16 05:15:48;;;;;;;35.90;23.00;;;;;;;8.08;85.47;98255.32;434297;1257;109480;-39
2024/03/16 05:25:55;;;;;;;30.90;20.20;;;;;;;8.12;85.59;98261.38;434133;1255;99276;-40
2024/03/16 05:46:08;;;;;;;28.20;18.00;;;;;;;8.43;85.93;98270.45;434072;1257;108391;-39
2024/03/16 05:56:15;;;;;;;34.10;20.60;;;;;;;8.56;85.99;98268.20;434110;1258;99340;-39
2024/03/16 06:06:21;;;;;;;31.60;21.80;;;;;;;8.66;86.27;98272.96;434235;1257;106307;-39
2024/03/16 06:16:27;;;;;;;30.10;20.40;;;;;;;8.84;86.19;98275.69;434331;1254;98848;-40
2024/03/16 06:36:39;;;;;;;24.50;17.40;;;;;;;9.42;86.09;98290.27;434091;1254;107420;-40
2024/03/16 06:46:46;;;;;;;28.10;17.90;;;;;;;9.80;86.48;98304.67;434338;1257;98061;-40
2024/03/16 06:56:55;;;;;;;28.20;18.30;;;;;;;10.30;86.30;98321.91;434386;1254;109463;-40
2024/03/16 07:17:08;;;;;;;24.80;15.80;;;;;;;11.64;85.56;98319.70;434240;1257;111187;-40
2024/03/16 07:27:14;;;;;;;24.40;15.80;;;;;;;11.89;84.77;98321.94;434226;1257;109357;-41
2024/03/16 07:37:20;;;;;;;22.40;14.70;;;;;;;12.23;84.26;98334.16;434210;1254;98154;-40
2024/03/16 07:47:27;;;;;;;20.80;13.90;;;;;;;12.66;84.17;98343.55;434262;1257;108259;-40
2024/03/16 07:57:32;;;;;;;15.30;11.70;;;;;;;12.95;82.68;98352.48;434210;1257;99240;-40
2024/03/16 08:27:50;;;;;;;16.90;10.10;;;;;;;12.78;81.52;98357.04;434190;1255;99340;-40
2024/03/16 08:37:57;;;;;;;12.10;9.20;;;;;;;13.66;81.42;98359.82;434360;1257;107455;-40
2024/03/16 08:48:03;;;;;;;16.90;9.00;;;;;;;14.18;79.70;98362.61;434269;1254;98099;-39
2024/03/16 08:58:10;;;;;;;9.20;7.50;;;;;;;14.67;79.24;98365.52;434412;1257;111455;-40
2024/03/16 09:08:18;;;;;;;10.70;7.40;;;;;;;15.26;78.17;98359.48;434114;1254;106466;-39
2024/03/16 09:28:29;;;;;;;7.10;6.30;;;;;;;16.14;76.76;98343.48;434259;1257;108200;-40
2024/03/16 09:38:36;;;;;;;8.80;6.90;;;;;;;16.19;75.76;98338.50;434312;1255;99285;-40
2024/03/16 09:48:43;;;;;;;12.40;7.30;;;;;;;16.46;75.49;98334.43;434328;1257;110315;-40
2024/03/16 09:58:50;;;;;;;9.30;6.10;;;;;;;16.89;75.55;98329.45;434274;1254;107187;-40
2024/03/16 10:19:13;;;;;;;8.00;4.30;;;;;;;16.63;72.91;98324.90;434234;1254;109118;-41
2024/03/16 10:49:30;;;;;;;5.20;4.70;;;;;;;17.13;70.68;98320.77;435176;1257;107914;-39
2024/03/16 10:59:41;;;;;;;3.70;3.40;;;;;;;17.34;70.50;98317.63;434959;1254;97999;-40
2024/03/16 11:09:48;;;;;;;13.00;5.30;;;;;;;17.51;70.19;98305.13;434366;1254;108705;-40
2024/03/16 11:20:00;;;;;;;5.80;4.50;;;;;;;17.54;69.33;98315.73;434387;1254;99343;-39
2024/03/16 11:30:21;;;;;;;6.00;3.70;;;;;;;17.62;67.31;98316.02;434338;1256;112187;-40
2024/03/16 11:50:44;;;;;;;3.60;2.50;;;;;;;17.82;65.62;98312.42;434352;1256;99240;-40
2024/03/16 12:00:52;;;;;;;4.20;2.90;;;;;;;17.82;62.69;98310.88;434371;1256;108675;-40
2024/03/16 12:10:58;;;;;;;3.00;2.00;;;;;;;18.04;63.35;98296.33;434331;1254;99408;-40
2024/03/16 12:21:05;;;;;;;2.90;1.50;;;;;;;17.91;62.29;98296.90;434329;1257;111199;-40
2024/03/16 12:31:11;;;;;;;4.10;1.90;;;;;;;17.21;62.00;98304.48;434291;1257;106630;-40
2024/03/16 12:41:17;;;;;;;5.70;2.50;;;;;;;16.71;62.88;98300.52;434380;1257;99281;-40
2024/03/16 12:51:24;;;;;;;3.60;2.60;;;;;;;16.42;63.63;98301.10;434287;1254;108603;-40
2024/03/16 13:01:31;;;;;;;3.60;1.70;;;;;;;16.46;63.99;98306.31;434401;1255;99221;-40
2024/03/16 13:11:37;;;;;;;3.50;2.50;;;;;;;16.37;63.91;98302.95;434420;1256;112469;-40
2024/03/16 13:21:44;;;;;;;2.10;1.50;;;;;;;16.39;63.90;98296.52;434375;1258;109291;-39
2024/03/16 13:31:51;;;;;;;7.00;2.80;;;;;;;16.12;64.34;98294.20;434370;1256;98724;-40
2024/03/16 13:41:56;;;;;;;6.20;2.00;;;;;;;15.71;64.58;98300.79;434390;1258;107514;-39
2024/03/16 13:52:03;;;;;;;6.00;2.40;;;;;;;14.47;65.62;98345.13;434396;1254;98064;-41
2024/03/16 14:02:09;;;;;;;4.80;1.30;;;;;;;12.57;68.40;98338.30;434373;1256;110949;-41
2024/03/16 14:12:16;;;;;;;5.60;2.90;;;;;;;12.47;70.38;98316.36;434301;1256;107682;-40
2024/03/16 14:22:23;;;;;;;4.80;2.40;;;;;;;12.91;72.01;98304.42;434437;1258;99266;-40
2024/03/16 14:42:33;;;;;;;14.10;7.70;;;;;;;13.75;73.13;98301.11;434465;1254;99243;-41
2024/03/16 15:02:47;;;;;;;18.70;9.80;;;;;;;13.58;72.94;98285.39;434399;1269;108320;-41
2024/03/16 15:12:54;;;;;;;10.80;5.50;;;;;;;13.57;72.96;98279.54;434585;1256;98006;-40
2024/03/16 15:23:00;;;;;;;8.60;5.00;;;;;;;13.62;73.14;98279.61;434484;1256;107354;-40
2024/03/16 15:33:07;;;;;;;9.20;4.70;;;;;;;13.61;73.43;98273.08;434787;1256;99257;-41
2024/03/16 15:43:15;;;;;;;10.30;5.70;;;;;;;13.65;73.68;98274.95;434467;1259;112204;-41
2024/03/16 15:53:23;;;;;;;18.10;7.30;;;;;;;13.65;73.95;98278.67;434428;1263;107654;-42
2024/03/16 16:03:30;;;;;;;30.10;14.00;;;;;;;13.60;74.51;98286.62;434467;1258;99324;-41
2024/03/16 16:13:36;;;;;;;43.00;22.40;;;;;;;13.41;74.66;98298.51;434612;1258;107861;-40
2024/03/16 16:43:52;;;;;;;34.40;18.60;;;;;;;12.64;75.20;98313.88;434498;1254;108099;-39
2024/03/16 17:04:05;;;;;;;24.40;13.90;;;;;;;12.35;76.23;98350.11;434492;1254;108504;-40
2024/03/16 17:14:12;;;;;;;10.50;6.80;;;;;;;11.93;77.39;98397.38;434567;1267;98144;-40
2024/03/16 17:24:18;;;;;;;30.30;12.00;;;;;;;11.22;78.05;98394.98;434546;1256;111808;-40
2024/03/16 17:34:24;;;;;;;20.60;9.30;;;;;;;10.91;78.85;98380.08;434332;1257;108813;-40
2024/03/16 17:44:31;;;;;;;26.60;13.10;;;;;;;10.97;79.29;98382.76;434218;1254;447516;-40
2024/03/16 17:54:37;;;;;;;65.10;29.40;;;;;;;10.92;79.63;98387.01;434403;1260;108923;-39
2024/03/16 18:04:44;;;;;;;65.70;29.60;;;;;;;10.72;79.86;98394.57;434482;1254;99257;-39
2024/03/16 18:24:56;;;;;;;9.60;5.60;;;;;;;10.38;80.14;98420.55;434290;1260;108399;-40
2024/03/16 18:35:03;;;;;;;23.00;14.40;;;;;;;10.22;80.56;98420.59;434406;1258;99332;-40
2024/03/16 18:45:13;;;;;;;23.90;15.30;;;;;;;10.13;80.84;98427.38;434416;1258;107412;-41
2024/03/16 18:55:28;;;;;;;18.10;11.80;;;;;;;10.06;81.26;98439.86;434334;1268;98874;-41
2024/03/16 19:05:34;;;;;;;29.20;16.20;;;;;;;9.93;81.52;98442.11;434420;1260;112065;-41
2024/03/16 19:25:47;;;;;;;20.80;12.50;;;;;;;9.90;82.05;98464.91;434427;1260;99256;-39
2024/03/16 19:35:54;;;;;;;38.30;19.20;;;;;;;9.95;82.23;98473.43;434324;1258;108338;-40
2024/03/16 19:46:00;;;;;;;27.50;15.20;;;;;;;9.92;82.49;98466.27;434247;1258;99892;-40
2024/03/16 20:06:14;;;;;;;11.70;7.20;;;;;;;9.64;82.90;98483.88;434340;1265;108188;-40
2024/03/16 20:16:20;;;;;;;7.70;5.60;;;;;;;9.53;83.38;98496.92;434309;1258;99251;-40
2024/03/16 20:26:27;;;;;;;6.30;5.40;;;;;;;9.48;83.77;98509.22;434359;1254;107645;-40
2024/03/16 20:36:33;;;;;;;9.20;6.30;;;;;;;9.41;83.87;98524.25;434311;1259;98046;-40
2024/03/16 20:46:40;;;;;;;13.60;7.60;;;;;;;9.32;84.74;98531.33;434362;1258;111498;-41
2024/03/16 21:06:53;;;;;;;8.10;5.30;;;;;;;9.09;86.24;98549.34;434289;1261;101488;-39
2024/03/16 21:16:59;;;;;;;9.60;5.90;;;;;;;8.92;86.86;98557.05;434051;1257;108163;-41
2024/03/16 21:27:06;;;;;;;6.60;5.20;;;;;;;8.87;87.69;98562.10;434087;1259;99228;-40
2024/03/16 21:37:16;;;;;;;7.20;4.50;;;;;;;8.85;88.38;98579.57;434278;1254;111124;-40
2024/03/16 21:47:22;;;;;;;7.10;4.20;;;;;;;8.89;88.82;98591.73;434170;1255;107085;-40
2024/03/16 22:07:34;;;;;;;8.30;5.30;;;;;;;8.94;89.22;98615.77;434394;1257;108115;-41
2024/03/16 22:37:53;;;;;;;4.70;3.50;;;;;;;8.32;92.29;98674.90;434124;1258;107016;-39
2024/03/16 22:47:59;;;;;;;8.50;5.90;;;;;;;7.90;93.02;98688.89;434235;1257;99269;-40
2024/03/16 22:58:06;;;;;;;11.00;6.80;;;;;;;7.53;93.45;98700.27;434271;1254;107699;-40
2024/03/16 23:08:12;;;;;;;9.10;4.40;;;;;;;7.14;94.05;98730.80;434051;1258;99282;-41
2024/03/16 23:18:19;;;;;;;9.50;5.20;;;;;;;6.61;94.22;98754.67;434247;1254;111420;-39
2024/03/16 23:48:39;;;;;;;7.90;5.10;;;;;;;6.03;93.12;98793.73;434155;1270;109347;-39
2024/03/16 23:58:45;;;;;;;7.80;3.80;;;;;;;6.00;92.62;98816.14;434136;1258;99339;-38
